Time;durP1;ratioP1;P1;durP2;ratioP2;P2;SDS_P1;SDS_P2;PMS_P1;PMS_P2;Temp;Humidity;BMP_temperature;BMP_pressure;BME280_temperature;BME280_humidity;BME280_pressure;Samples;Min_cycle;Max_cycle;Signal;HPM_P1;HPM_P2
2023/01/20 00:05:44;;;;;;;33.65;16.27;;;;;;;-0.80;100.00;99774.75;20823097;28;20468;-70
2023/01/20 00:15:45;;;;;;;35.65;18.00;;;;;;;-0.84;100.00;99789.25;20841191;28;20510;-71
2023/01/20 00:25:46;;;;;;;37.55;18.02;;;;;;;-0.81;100.00;99796.16;20842466;28;20436;-72
2023/01/20 00:35:48;;;;;;;31.27;17.63;;;;;;;-0.79;100.00;99803.06;20838410;28;20060;-71
2023/01/20 00:45:49;;;;;;;32.90;18.48;;;;;;;-0.82;100.00;99818.41;20853468;28;20115;-72
2023/01/20 00:55:50;;;;;;;34.15;18.05;;;;;;;-0.89;100.00;99831.09;20851652;28;20061;-70
2023/01/20 01:05:52;;;;;;;38.08;19.55;;;;;;;-0.99;100.00;99834.31;20857062;28;20051;-71
2023/01/20 01:15:53;;;;;;;32.83;18.65;;;;;;;-1.05;100.00;99851.34;20848013;28;20050;-70
2023/01/20 01:25:54;;;;;;;33.13;17.50;;;;;;;-1.16;100.00;99862.19;20859290;28;20139;-70
2023/01/20 01:35:56;;;;;;;34.92;17.80;;;;;;;-1.23;100.00;99875.75;20844731;28;20679;-70
2023/01/20 01:45:57;;;;;;;36.40;17.15;;;;;;;-1.19;100.00;99888.69;20855245;28;20049;-71
2023/01/20 01:55:58;;;;;;;33.67;17.02;;;;;;;-1.17;100.00;99887.00;20845792;28;20523;-71
2023/01/20 02:05:59;;;;;;;28.85;15.90;;;;;;;-1.11;100.00;99894.00;20852026;28;20114;-71
2023/01/20 02:16:03;;;;;;;30.92;16.63;;;;;;;-1.11;100.00;99902.56;20848745;28;20541;-72
2023/01/20 02:26:04;;;;;;;30.65;16.55;;;;;;;-1.10;100.00;99914.59;20814695;23;20120;-70
2023/01/20 02:36:05;;;;;;;31.15;17.48;;;;;;;-1.07;100.00;99924.06;20767626;28;20052;-69
2023/01/20 02:46:06;;;;;;;33.65;17.73;;;;;;;-1.14;100.00;99923.06;20764058;28;20054;-69
2023/01/20 02:56:08;;;;;;;33.42;17.45;;;;;;;-1.11;100.00;99937.66;20768117;28;20096;-69
2023/01/20 03:06:09;;;;;;;32.97;17.85;;;;;;;-1.09;100.00;99947.16;20758932;28;20072;-69
2023/01/20 03:16:10;;;;;;;34.22;18.98;;;;;;;-1.06;100.00;99951.47;20768871;28;20548;-70
2023/01/20 03:26:12;;;;;;;36.78;19.00;;;;;;;-0.99;100.00;99963.66;20757979;28;20083;-69
2023/01/20 03:36:13;;;;;;;30.65;17.63;;;;;;;-0.97;100.00;99974.81;20768989;28;20070;-69
2023/01/20 03:46:14;;;;;;;40.13;19.95;;;;;;;-0.94;100.00;99995.47;20745510;28;20062;-69
2023/01/20 03:56:16;;;;;;;40.55;20.15;;;;;;;-0.97;100.00;99999.66;20764425;28;20331;-69
2023/01/20 04:06:17;;;;;;;40.42;19.50;;;;;;;-1.07;100.00;99999.44;20760503;28;20112;-69
2023/01/20 04:16:18;;;;;;;37.88;19.23;;;;;;;-1.05;100.00;100008.06;20773056;28;20053;-69
2023/01/20 04:26:20;;;;;;;38.45;18.77;;;;;;;-1.09;100.00;100018.22;20784550;28;20061;-69
2023/01/20 04:36:21;;;;;;;37.33;20.52;;;;;;;-1.12;100.00;100025.84;20781723;28;20413;-69
2023/01/20 04:46:22;;;;;;;37.72;20.70;;;;;;;-1.23;100.00;100035.00;20782932;28;20045;-69
2023/01/20 04:56:24;;;;;;;39.67;20.50;;;;;;;-1.23;100.00;100037.56;20774032;28;20050;-69
2023/01/20 05:06:25;;;;;;;37.25;20.33;;;;;;;-1.35;100.00;100046.66;20782863;28;20057;-70
2023/01/20 05:16:30;;;;;;;33.25;16.92;;;;;;;-1.36;100.00;100051.78;20774329;28;20046;-70
2023/01/20 05:26:32;;;;;;;38.08;19.80;;;;;;;-1.35;100.00;100061.19;20783065;28;20057;-70
2023/01/20 05:36:33;;;;;;;39.45;20.45;;;;;;;-1.39;100.00;100078.25;20770707;28;20050;-70
2023/01/20 05:46:34;;;;;;;46.15;22.65;;;;;;;-1.37;100.00;100094.56;20780724;28;20077;-70
2023/01/20 05:56:35;;;;;;;36.47;17.75;;;;;;;-1.30;100.00;100100.72;20771643;28;20045;-69
2023/01/20 06:06:37;;;;;;;32.70;18.08;;;;;;;-1.30;100.00;100111.84;20776887;28;20057;-70
2023/01/20 06:16:38;;;;;;;35.83;19.77;;;;;;;-1.27;100.00;100128.19;20773271;28;20103;-70
2023/01/20 06:26:39;;;;;;;42.08;18.88;;;;;;;-1.21;100.00;100136.94;20770001;28;20556;-70
2023/01/20 06:36:40;;;;;;;31.48;16.85;;;;;;;-1.36;100.00;100147.66;20769640;28;20058;-70
2023/01/20 06:46:42;;;;;;;33.03;17.48;;;;;;;-1.47;100.00;100158.47;20764848;28;20050;-70
2023/01/20 06:56:43;;;;;;;34.80;17.50;;;;;;;-1.53;100.00;100176.22;20773497;28;20061;-71
2023/01/20 07:06:44;;;;;;;29.40;15.52;;;;;;;-1.64;100.00;100186.19;20761509;28;20045;-71
2023/01/20 07:16:46;;;;;;;28.83;14.25;;;;;;;-1.72;100.00;100201.38;20772050;28;20057;-72
2023/01/20 07:26:47;;;;;;;29.73;16.20;;;;;;;-1.76;100.00;100211.50;20758986;28;20142;-73
2023/01/20 07:36:48;;;;;;;37.00;18.33;;;;;;;-1.72;100.00;100221.91;20766689;28;20096;-73
2023/01/20 07:46:50;;;;;;;36.70;18.40;;;;;;;-1.60;100.00;100234.25;20761184;28;20499;-73
2023/01/20 07:56:51;;;;;;;40.60;20.27;;;;;;;-1.45;100.00;100255.22;20796310;28;20052;-73
2023/01/20 08:06:53;;;;;;;37.42;20.08;;;;;;;-1.24;100.00;100261.84;20810474;28;20215;-72
2023/01/20 08:16:54;;;;;;;45.72;21.50;;;;;;;-1.04;100.00;100286.41;20790887;28;20513;-72
2023/01/20 08:26:55;;;;;;;39.13;19.30;;;;;;;-0.81;100.00;100287.94;20855991;23;20066;-74
2023/01/20 08:36:56;;;;;;;40.90;19.38;;;;;;;-0.54;100.00;100287.81;20745152;28;20136;-73
2023/01/20 08:46:58;;;;;;;34.10;18.20;;;;;;;-0.27;100.00;100307.41;20745570;28;20129;-74
2023/01/20 08:56:59;;;;;;;34.97;17.85;;;;;;;-0.10;100.00;100311.28;20745223;28;20145;-74
2023/01/20 09:07:01;;;;;;;36.45;18.48;;;;;;;0.10;100.00;100323.81;20732798;28;20046;-70
2023/01/20 09:17:02;;;;;;;33.90;16.83;;;;;;;0.28;100.00;100331.09;20731781;28;20278;-70
2023/01/20 09:27:03;;;;;;;25.88;14.43;;;;;;;0.67;100.00;100334.63;20731345;28;20096;-70
2023/01/20 09:47:24;;;;;;;24.90;12.40;;;;;;;1.42;100.00;100358.59;20709866;28;20491;-71
2023/01/20 09:57:26;;;;;;;28.00;11.63;;;;;;;1.98;100.00;100353.66;20727549;28;20058;-71
2023/01/20 10:07:27;;;;;;;19.40;9.68;;;;;;;1.57;100.00;100358.88;20725467;28;20124;-71
2023/01/20 10:17:28;;;;;;;20.13;9.68;;;;;;;1.77;100.00;100367.91;20725246;28;20481;-71
2023/01/20 10:27:30;;;;;;;17.33;8.35;;;;;;;2.18;100.00;100365.22;20726136;28;20115;-71
2023/01/20 10:37:31;;;;;;;20.90;9.95;;;;;;;2.33;100.00;100361.16;20723826;28;20062;-71
2023/01/20 10:47:32;;;;;;;26.63;13.82;;;;;;;2.79;100.00;100371.38;20724643;28;20069;-71
2023/01/20 10:57:35;;;;;;;27.45;15.38;;;;;;;2.59;100.00;100375.38;20722687;28;20054;-71
2023/01/20 11:07:36;;;;;;;25.95;14.13;;;;;;;2.95;100.00;100376.78;20721109;28;20108;-71
2023/01/20 11:17:37;;;;;;;21.02;12.13;;;;;;;3.32;100.00;100373.88;20718645;28;20050;-71
2023/01/20 11:27:38;;;;;;;22.35;11.77;;;;;;;3.86;100.00;100366.72;20701946;28;20418;-71
2023/01/20 11:37:40;;;;;;;18.88;10.98;;;;;;;3.99;100.00;100371.19;20719788;28;20540;-72
2023/01/20 11:47:41;;;;;;;28.05;13.48;;;;;;;3.84;100.00;100373.63;20720441;28;20553;-71
2023/01/20 11:57:43;;;;;;;23.63;12.50;;;;;;;3.62;100.00;100376.81;20718724;28;20062;-70
2023/01/20 12:07:44;;;;;;;25.42;14.15;;;;;;;3.64;100.00;100375.09;20717219;28;20057;-70
2023/01/20 12:17:46;;;;;;;22.35;12.48;;;;;;;3.53;100.00;100377.56;20718468;28;20116;-71
2023/01/20 12:27:47;;;;;;;24.73;13.82;;;;;;;3.39;100.00;100386.88;20718596;28;20494;-71
2023/01/20 12:37:49;;;;;;;29.85;15.30;;;;;;;3.42;100.00;100389.50;20722723;28;20502;-72
2023/01/20 12:47:50;;;;;;;28.00;13.18;;;;;;;3.71;100.00;100382.97;20730918;28;20435;-70
2023/01/20 12:57:51;;;;;;;25.58;13.02;;;;;;;3.60;100.00;100388.03;20729815;28;20404;-70
2023/01/20 13:07:54;;;;;;;25.17;12.40;;;;;;;3.33;100.00;100378.19;20728054;28;20494;-70
2023/01/20 13:17:56;;;;;;;27.35;13.68;;;;;;;3.28;100.00;100381.56;20726427;28;20062;-70
2023/01/20 13:27:57;;;;;;;22.17;12.23;;;;;;;3.41;100.00;100385.19;20727505;28;20057;-70
2023/01/20 13:37:58;;;;;;;21.60;11.95;;;;;;;3.30;100.00;100380.72;20726438;28;20054;-71
2023/01/20 13:48:00;;;;;;;22.02;13.65;;;;;;;3.36;100.00;100381.69;20724193;28;20054;-72
2023/01/20 13:58:25;;;;;;;26.38;15.40;;;;;;;3.29;100.00;100384.16;20700981;28;20045;-72
2023/01/20 14:08:50;;;;;;;20.38;12.38;;;;;;;3.16;100.00;100402.94;20703141;28;20054;-73
2023/01/20 14:18:51;;;;;;;20.50;11.25;;;;;;;3.19;100.00;100415.06;20699826;28;20105;-72
2023/01/20 14:28:52;;;;;;;19.27;9.60;;;;;;;3.16;100.00;100418.47;20719064;23;20115;-72
2023/01/20 14:38:55;;;;;;;17.95;9.90;;;;;;;3.15;100.00;100426.22;20779993;28;20307;-68
2023/01/20 14:48:59;;;;;;;;;;;;;;;3.11;100.00;100422.69;20778642;28;20058;-68
2023/01/20 14:59:00;;;;;;;22.05;10.57;;;;;;;2.99;100.00;100426.00;20772665;28;19920;-68
2023/01/20 15:09:01;;;;;;;18.65;9.85;;;;;;;2.88;100.00;100427.56;20767597;28;20049;-69
2023/01/20 15:19:07;;;;;;;19.17;10.68;;;;;;;2.61;100.00;100438.31;20777062;28;20059;-67
2023/01/20 15:29:10;;;;;;;19.83;10.90;;;;;;;2.39;100.00;100436.19;20767754;28;20049;-68
2023/01/20 15:39:12;;;;;;;20.52;10.63;;;;;;;2.29;100.00;100441.16;20765496;28;20391;-68
2023/01/20 15:49:16;;;;;;;18.67;11.55;;;;;;;2.24;100.00;100452.28;20767757;28;20236;-68
2023/01/20 15:59:17;;;;;;;18.10;11.13;;;;;;;2.14;100.00;100455.53;20769473;28;20053;-68
2023/01/20 16:09:18;;;;;;;24.27;14.40;;;;;;;2.09;100.00;100460.59;20767335;28;20049;-68
2023/01/20 16:19:19;;;;;;;22.77;12.90;;;;;;;2.07;100.00;100472.63;20789445;28;20053;-68
2023/01/20 16:29:21;;;;;;;21.63;12.07;;;;;;;2.03;100.00;100475.97;20783630;28;20419;-68
2023/01/20 16:39:22;;;;;;;21.48;11.45;;;;;;;2.04;100.00;100481.16;20781220;28;20061;-67
2023/01/20 16:49:23;;;;;;;18.45;10.00;;;;;;;2.08;100.00;100486.41;20779850;28;20076;-68
2023/01/20 16:59:24;;;;;;;19.42;10.52;;;;;;;2.07;100.00;100485.53;20782476;28;20131;-68
2023/01/20 17:09:26;;;;;;;26.92;13.15;;;;;;;2.04;100.00;100500.97;20778668;28;20053;-68
2023/01/20 17:19:27;;;;;;;23.40;13.20;;;;;;;2.05;100.00;100505.28;20778964;28;20124;-69
2023/01/20 17:29:28;;;;;;;20.23;12.48;;;;;;;2.03;100.00;100514.72;20770820;28;20061;-68
2023/01/20 17:39:29;;;;;;;24.38;12.45;;;;;;;2.05;100.00;100515.59;20774564;28;20401;-68
2023/01/20 17:49:31;;;;;;;24.33;14.10;;;;;;;2.07;100.00;100532.03;20769752;28;20062;-68
2023/01/20 17:59:32;;;;;;;17.92;11.45;;;;;;;2.10;100.00;100524.31;20771810;28;20398;-67
2023/01/20 18:09:33;;;;;;;22.90;12.77;;;;;;;2.13;100.00;100533.84;20771105;28;20112;-67
2023/01/20 18:19:35;;;;;;;21.10;11.13;;;;;;;2.13;100.00;100550.22;20769436;28;20115;-68
2023/01/20 18:29:36;;;;;;;25.65;11.55;;;;;;;1.89;100.00;100572.94;20766556;28;20085;-67
2023/01/20 18:39:37;;;;;;;23.02;12.13;;;;;;;1.43;100.00;100582.19;20769518;28;20111;-68
2023/01/20 18:49:38;;;;;;;31.35;17.77;;;;;;;1.43;100.00;100584.78;20767394;28;20053;-68
2023/01/20 18:59:41;;;;;;;28.52;16.40;;;;;;;1.34;100.00;100580.25;20764057;28;20057;-68
2023/01/20 19:09:42;;;;;;;23.48;13.07;;;;;;;1.30;100.00;100580.19;20769830;28;20450;-67
2023/01/20 19:19:48;;;;;;;23.75;12.55;;;;;;;1.27;100.00;100575.78;20771060;28;20053;-67
2023/01/20 19:29:49;;;;;;;29.63;17.85;;;;;;;1.30;100.00;100577.59;20764572;28;20053;-68
2023/01/20 19:39:50;;;;;;;30.95;18.65;;;;;;;1.32;100.00;100596.53;20764446;28;20053;-68
2023/01/20 19:49:52;;;;;;;36.20;20.27;;;;;;;1.28;100.00;100591.31;20765760;28;20061;-69
2023/01/20 19:59:53;;;;;;;26.10;13.38;;;;;;;1.17;100.00;100599.63;20755158;28;20063;-69
2023/01/20 20:09:54;;;;;;;25.40;13.70;;;;;;;1.13;100.00;100598.66;20765900;28;20112;-69
2023/01/20 20:19:56;;;;;;;23.63;12.55;;;;;;;1.04;100.00;100595.84;20763085;28;20085;-69
2023/01/20 20:30:00;;;;;;;26.30;14.90;;;;;;;0.98;100.00;100595.69;20759517;28;20057;-69
2023/01/20 20:40:01;;;;;;;27.20;16.43;;;;;;;1.00;100.00;100599.16;20751563;28;20064;-69
2023/01/20 20:50:02;;;;;;;27.73;17.02;;;;;;;0.97;100.00;100606.84;20757090;28;20336;-70
2023/01/20 21:00:04;;;;;;;27.60;14.95;;;;;;;0.92;100.00;100603.28;20766692;28;20091;-70
2023/01/20 21:10:05;;;;;;;31.85;17.88;;;;;;;0.91;100.00;100612.72;20772571;28;20053;-69
2023/01/20 21:20:06;;;;;;;31.08;18.10;;;;;;;0.90;100.00;100616.09;20780371;28;20057;-68
2023/01/20 21:30:07;;;;;;;28.83;16.65;;;;;;;0.91;100.00;100616.97;20764114;28;20057;-69
2023/01/20 21:40:09;;;;;;;28.10;15.38;;;;;;;0.91;100.00;100622.13;20773483;28;20056;-68
2023/01/20 22:00:30;;;;;;;32.58;16.77;;;;;;;0.96;100.00;100636.03;20771413;28;20108;-68
2023/01/20 22:10:31;;;;;;;31.02;16.20;;;;;;;0.97;100.00;100637.78;20763281;28;20067;-69
2023/01/20 22:20:33;;;;;;;27.80;14.35;;;;;;;0.87;100.00;100656.41;20765227;28;20058;-69
2023/01/20 22:30:34;;;;;;;25.58;13.75;;;;;;;0.86;100.00;100681.28;20763785;28;20050;-69
2023/01/20 22:40:36;;;;;;;27.55;14.75;;;;;;;0.80;100.00;100680.25;20764879;28;20417;-69
2023/01/20 22:50:37;;;;;;;26.55;15.63;;;;;;;0.77;100.00;100687.09;20767423;28;20148;-70
2023/01/20 23:00:38;;;;;;;29.20;14.90;;;;;;;0.75;100.00;100682.69;20762235;28;20069;-69
2023/01/20 23:10:46;;;;;;;26.67;15.38;;;;;;;0.74;100.00;100693.84;20771031;28;20053;-69
2023/01/20 23:20:47;;;;;;;31.73;15.77;;;;;;;0.69;100.00;100693.72;20759326;28;20108;-68
2023/01/20 23:30:48;;;;;;;31.08;15.70;;;;;;;0.71;100.00;100699.78;20767070;28;20556;-68
2023/01/20 23:40:49;;;;;;;23.48;13.82;;;;;;;0.68;100.00;100703.97;20758791;28;20041;-67
2023/01/20 23:50:51;;;;;;;27.63;13.60;;;;;;;0.71;100.00;100722.97;20765461;28;20049;-67
